Time;durP1;ratioP1;P1;durP2;ratioP2;P2;SDS_P1;SDS_P2;PMS_P1;PMS_P2;Temp;Humidity;BMP_temperature;BMP_pressure;BME280_temperature;BME280_humidity;BME280_pressure;Samples;Min_cycle;Max_cycle;Signal;HPM_P1;HPM_P2
2021/03/20 00:01:51;;;;;;;12.75;5.72;;;;;;;-15.03;88.32;101864.16;2573503;55;20541;-67
2021/03/20 00:04:21;;;;;;;11.20;5.90;;;;;;;-15.06;88.86;101862.31;2573875;55;20109;-64
2021/03/20 00:06:55;;;;;;;8.98;4.80;;;;;;;-15.05;89.46;101869.22;2573658;55;20116;-66
2021/03/20 00:09:27;;;;;;;15.15;5.37;;;;;;;-15.10;88.54;101868.13;2568526;55;20109;-64
2021/03/20 00:11:57;;;;;;;9.48;4.32;;;;;;;-15.12;88.25;101862.06;2573285;55;20110;-64
2021/03/20 00:14:28;;;;;;;14.10;4.85;;;;;;;-15.16;88.10;101855.00;2568428;55;20507;-67
2021/03/20 00:16:57;;;;;;;14.77;4.97;;;;;;;-15.25;87.82;101846.06;2573484;55;20140;-67
2021/03/20 00:19:26;;;;;;;13.25;4.82;;;;;;;-15.30;87.52;101852.66;2568622;55;20113;-64
2021/03/20 00:21:55;;;;;;;19.33;6.72;;;;;;;-15.32;87.95;101841.47;2573610;55;20558;-67
2021/03/20 00:24:22;;;;;;;19.05;8.20;;;;;;;-15.37;87.87;101848.03;2573643;55;20135;-64
2021/03/20 00:26:51;;;;;;;24.08;8.48;;;;;;;-15.43;87.35;101840.94;2568452;55;20118;-67
2021/03/20 00:29:37;;;;;;;16.17;6.53;;;;;;;-15.45;87.03;101849.31;2573667;55;20476;-64
2021/03/20 00:32:08;;;;;;;18.83;6.55;;;;;;;-15.49;87.00;101840.63;2568455;55;20117;-64
2021/03/20 00:34:36;;;;;;;18.27;8.13;;;;;;;-15.50;87.12;101827.75;2573577;55;20661;-64
2021/03/20 00:37:06;;;;;;;15.02;7.43;;;;;;;-15.50;87.60;101822.66;2568538;55;20109;-64
2021/03/20 00:39:34;;;;;;;12.68;5.50;;;;;;;-15.52;86.90;101820.88;2573523;55;20175;-64
2021/03/20 00:42:01;;;;;;;13.57;5.75;;;;;;;-15.60;87.00;101824.75;2568566;55;20143;-66
2021/03/20 00:44:32;;;;;;;11.00;4.62;;;;;;;-15.66;86.84;101819.31;2568471;55;20520;-64
2021/03/20 00:47:01;;;;;;;10.75;4.95;;;;;;;-15.67;87.87;101825.22;2568595;55;20132;-64
2021/03/20 00:49:28;;;;;;;14.75;5.28;;;;;;;-15.67;88.25;101812.44;2573506;55;20148;-66
2021/03/20 00:51:59;;;;;;;11.55;5.85;;;;;;;-15.66;88.75;101817.63;2568531;55;20105;-64
2021/03/20 00:54:28;;;;;;;10.77;5.20;;;;;;;-15.68;88.25;101814.13;2573556;55;20101;-67
2021/03/20 00:56:57;;;;;;;13.90;5.95;;;;;;;-15.70;88.40;101814.84;2568414;55;20627;-64
2021/03/20 00:59:24;;;;;;;19.23;6.68;;;;;;;-15.70;88.59;101809.72;2568361;55;20136;-64
2021/03/20 01:01:56;;;;;;;12.75;6.78;;;;;;;-15.74;87.73;101795.00;2573441;55;20136;-66
2021/03/20 01:04:26;;;;;;;12.65;5.18;;;;;;;-15.72;88.10;101796.00;2573467;55;20132;-67
2021/03/20 01:06:56;;;;;;;13.95;5.95;;;;;;;-15.75;88.21;101801.81;2568280;55;20636;-67
2021/03/20 01:09:28;;;;;;;14.10;5.68;;;;;;;-15.81;88.50;101801.50;2568244;55;20105;-67
2021/03/20 01:11:58;;;;;;;12.35;4.90;;;;;;;-15.80;88.67;101793.91;2573335;55;20524;-67
2021/03/20 01:14:30;;;;;;;13.57;4.62;;;;;;;-15.74;88.69;101798.47;2568373;55;20121;-67
2021/03/20 01:16:59;;;;;;;13.75;5.32;;;;;;;-15.74;88.17;101787.34;2573394;55;20113;-66
2021/03/20 01:19:28;;;;;;;11.18;5.20;;;;;;;-15.77;87.13;101794.88;2568312;55;20161;-64
2021/03/20 01:21:55;;;;;;;13.95;5.80;;;;;;;-15.89;86.91;101772.09;2568212;55;20106;-67
2021/03/20 01:24:24;;;;;;;59.22;15.25;;;;;;;-15.93;86.75;101777.91;2568147;55;20139;-64
2021/03/20 01:26:53;;;;;;;46.40;14.27;;;;;;;-15.96;87.07;101776.06;2573289;55;20493;-66
2021/03/20 01:29:22;;;;;;;30.27;10.80;;;;;;;-15.96;86.74;101771.84;2573377;55;20129;-66
2021/03/20 01:31:51;;;;;;;34.20;10.60;;;;;;;-16.01;87.10;101772.41;2573382;55;20121;-64
2021/03/20 01:34:20;;;;;;;27.87;10.15;;;;;;;-16.03;87.36;101774.00;2568513;55;20109;-64
2021/03/20 01:36:48;;;;;;;28.48;9.90;;;;;;;-16.03;87.98;101764.66;2568293;55;20113;-67
2021/03/20 01:39:17;;;;;;;17.08;6.62;;;;;;;-16.05;87.53;101762.81;2573444;55;20106;-67
2021/03/20 01:41:47;;;;;;;15.02;5.80;;;;;;;-16.12;86.87;101764.19;2573353;55;20125;-64
2021/03/20 01:44:22;;;;;;;13.32;5.60;;;;;;;-16.16;87.06;101755.47;2573457;55;20121;-64
2021/03/20 01:46:53;;;;;;;13.05;6.22;;;;;;;-16.24;86.51;101749.09;2573304;55;20112;-66
2021/03/20 01:49:33;;;;;;;15.38;5.70;;;;;;;-16.23;86.00;101750.84;2573358;55;20109;-67
2021/03/20 01:52:13;;;;;;;21.85;7.80;;;;;;;-16.32;86.63;101740.19;2573466;55;20163;-64
2021/03/20 01:54:45;;;;;;;21.15;5.62;;;;;;;-16.31;86.87;101747.03;2573384;55;20546;-67
2021/03/20 01:57:21;;;;;;;14.18;6.18;;;;;;;-16.33;87.50;101753.72;2573263;55;20169;-66
2021/03/20 01:59:52;;;;;;;11.23;4.60;;;;;;;-16.30;88.11;101748.78;2568276;55;20117;-67
2021/03/20 02:02:21;;;;;;;14.00;5.50;;;;;;;-16.30;88.15;101749.66;2573357;55;20121;-64
2021/03/20 02:04:50;;;;;;;14.05;5.80;;;;;;;-16.28;87.84;101747.19;2573318;55;20114;-65
2021/03/20 02:07:19;;;;;;;14.60;4.65;;;;;;;-16.29;87.40;101745.44;2568222;55;20661;-66
2021/03/20 02:09:47;;;;;;;14.50;7.07;;;;;;;-16.37;86.56;101733.12;2568154;55;20151;-67
2021/03/20 02:12:24;;;;;;;26.23;7.85;;;;;;;-16.39;86.53;101732.19;2573177;55;20552;-64
2021/03/20 02:15:02;;;;;;;23.67;8.02;;;;;;;-16.38;86.84;101735.59;2568271;55;20122;-67
2021/03/20 02:17:40;;;;;;;15.68;6.60;;;;;;;-16.38;87.29;101731.38;2573121;55;20110;-65
2021/03/20 02:20:35;;;;;;;21.37;6.45;;;;;;;-16.44;87.00;101715.72;2573506;55;20110;-64
2021/03/20 02:23:42;;;;;;;11.38;5.47;;;;;;;-16.42;86.94;101714.16;2573428;55;20489;-64
2021/03/20 02:26:50;;;;;;;12.55;4.85;;;;;;;-16.42;86.93;101724.38;2570790;55;20616;-67
2021/03/20 02:29:54;;;;;;;16.90;6.72;;;;;;;-16.38;86.44;101710.94;2559477;55;20426;-67
2021/03/20 02:32:48;;;;;;;21.25;7.72;;;;;;;-16.45;86.56;101708.00;2568173;55;20120;-66
2021/03/20 02:35:25;;;;;;;29.23;9.98;;;;;;;-16.54;86.92;101709.28;2573378;55;20127;-65
2021/03/20 02:38:00;;;;;;;17.05;6.65;;;;;;;-16.55;87.06;101706.62;2568901;55;20523;-64
2021/03/20 02:40:33;;;;;;;19.25;7.53;;;;;;;-16.56;87.24;101707.44;2574129;55;20604;-67
2021/03/20 02:43:07;;;;;;;20.67;8.45;;;;;;;-16.58;87.18;101706.47;2574155;55;20646;-64
2021/03/20 02:45:42;;;;;;;22.83;8.43;;;;;;;-16.58;86.98;101701.37;2573945;55;20123;-67
2021/03/20 02:48:21;;;;;;;23.83;8.20;;;;;;;-16.58;87.55;101698.81;2573781;55;20117;-67
2021/03/20 02:50:59;;;;;;;16.98;6.82;;;;;;;-16.61;86.67;101702.06;2573910;55;20128;-67
2021/03/20 02:53:34;;;;;;;19.83;9.05;;;;;;;-16.64;86.98;101694.25;2573955;55;20161;-67
2021/03/20 02:56:05;;;;;;;24.92;9.35;;;;;;;-16.70;86.98;101691.37;2573887;55;20173;-67
2021/03/20 02:58:40;;;;;;;20.92;7.87;;;;;;;-16.65;87.46;101690.81;2574021;55;20102;-64
2021/03/20 03:01:18;;;;;;;15.82;7.85;;;;;;;-16.65;87.81;101683.16;2573766;55;20482;-65
2021/03/20 03:03:50;;;;;;;17.95;7.28;;;;;;;-16.65;87.67;101680.59;2568761;55;20162;-64
2021/03/20 03:06:27;;;;;;;14.57;6.68;;;;;;;-16.66;87.05;101668.63;2573950;55;20114;-64
2021/03/20 03:09:01;;;;;;;15.48;5.40;;;;;;;-16.69;87.12;101673.59;2568699;55;20507;-67
2021/03/20 03:11:36;;;;;;;14.63;5.93;;;;;;;-16.70;87.25;101682.06;2573624;55;20168;-63
2021/03/20 03:14:10;;;;;;;12.18;5.43;;;;;;;-16.75;87.38;101673.25;2569167;55;20105;-67
2021/03/20 03:16:44;;;;;;;15.65;5.90;;;;;;;-16.71;87.87;101667.53;2568582;55;20616;-64
2021/03/20 03:19:22;;;;;;;12.40;6.20;;;;;;;-16.69;87.91;101663.38;2568813;55;20128;-67
2021/03/20 03:21:57;;;;;;;14.02;6.40;;;;;;;-16.69;88.30;101671.03;2568786;55;20623;-64
2021/03/20 03:24:29;;;;;;;26.45;7.32;;;;;;;-16.65;88.80;101665.28;2573741;55;20117;-66
2021/03/20 03:27:03;;;;;;;18.30;6.15;;;;;;;-16.68;88.99;101660.00;2568682;55;20109;-64
2021/03/20 03:29:36;;;;;;;14.73;6.97;;;;;;;-16.64;89.27;101661.91;2573958;55;20131;-67
2021/03/20 03:32:15;;;;;;;18.08;6.87;;;;;;;-16.59;89.00;101663.84;2573903;55;20121;-66
2021/03/20 03:34:54;;;;;;;15.73;6.28;;;;;;;-16.58;88.93;101663.03;2568642;55;20130;-64
2021/03/20 03:37:29;;;;;;;13.55;6.18;;;;;;;-16.59;88.26;101659.59;2573836;55;20118;-64
2021/03/20 03:40:03;;;;;;;19.83;7.70;;;;;;;-16.59;89.03;101654.47;2568635;55;20109;-67
2021/03/20 03:42:33;;;;;;;17.90;7.93;;;;;;;-16.57;88.99;101652.03;2568744;55;20630;-64
2021/03/20 03:45:01;;;;;;;19.17;7.37;;;;;;;-16.58;89.17;101651.16;2573816;55;20125;-67
2021/03/20 03:47:30;;;;;;;17.10;7.12;;;;;;;-16.57;88.91;101636.69;2568527;55;20110;-67
2021/03/20 03:50:08;;;;;;;13.62;6.75;;;;;;;-16.53;89.74;101630.91;2568726;55;20121;-64
2021/03/20 03:52:37;;;;;;;17.40;7.40;;;;;;;-16.51;90.22;101626.78;2573679;55;20500;-67
2021/03/20 03:55:10;;;;;;;15.13;6.72;;;;;;;-16.45;89.86;101627.06;2573828;55;20115;-64
2021/03/20 03:57:53;;;;;;;19.62;7.57;;;;;;;-16.49;89.77;101614.97;2573672;55;20110;-66
2021/03/20 04:00:30;;;;;;;19.33;7.10;;;;;;;-16.45;90.67;101616.84;2568805;55;20123;-64
2021/03/20 04:03:23;;;;;;;20.95;8.15;;;;;;;-16.40;90.76;101622.19;2568747;55;20125;-66
2021/03/20 04:06:06;;;;;;;21.90;6.93;;;;;;;-16.39;90.19;101619.72;2568559;55;20132;-66
2021/03/20 04:08:45;;;;;;;14.93;6.53;;;;;;;-16.33;90.29;101620.81;2573668;55;20121;-64
2021/03/20 04:11:22;;;;;;;20.12;8.13;;;;;;;-16.29;91.01;101623.59;2573858;55;20169;-66
2021/03/20 04:14:00;;;;;;;19.42;6.80;;;;;;;-16.17;91.36;101613.09;2573745;55;20123;-67
2021/03/20 04:16:40;;;;;;;15.88;7.05;;;;;;;-16.05;91.81;101628.16;2568551;55;20163;-66
2021/03/20 04:19:15;;;;;;;12.02;6.93;;;;;;;-15.99;92.18;101623.34;2573617;55;20136;-67
2021/03/20 04:21:50;;;;;;;15.98;6.60;;;;;;;-15.91;93.32;101616.06;2573692;55;20125;-67
2021/03/20 04:24:23;;;;;;;11.40;4.80;;;;;;;-15.77;94.37;101608.09;2573856;55;20146;-64
2021/03/20 04:26:54;;;;;;;;;;;;;;;-15.57;93.93;101617.59;2573772;55;20140;-66
2021/03/20 04:29:31;;;;;;;11.73;4.80;;;;;;;-15.42;95.65;101611.44;2573511;55;20012;-64
2021/03/20 04:32:06;;;;;;;10.10;4.70;;;;;;;-15.26;95.74;101602.75;2568418;55;20118;-67
2021/03/20 04:34:41;;;;;;;11.43;5.95;;;;;;;-15.16;95.78;101596.34;2568556;55;20140;-67
2021/03/20 04:37:15;;;;;;;18.25;5.87;;;;;;;-15.05;96.21;101592.56;2568549;55;20124;-66
2021/03/20 04:39:46;;;;;;;14.68;6.40;;;;;;;-14.91;96.20;101594.88;2573504;55;20624;-67
2021/03/20 04:42:16;;;;;;;19.10;5.45;;;;;;;-14.85;96.37;101579.75;2573448;55;20122;-67
2021/03/20 04:44:49;;;;;;;9.27;4.85;;;;;;;-14.73;97.05;101574.28;2573475;55;20106;-67
2021/03/20 04:47:23;;;;;;;8.85;5.00;;;;;;;-14.62;96.91;101572.16;2568291;55;20122;-65
2021/03/20 04:49:58;;;;;;;14.25;5.55;;;;;;;-14.53;96.69;101557.12;2573702;55;20121;-67
2021/03/20 04:52:30;;;;;;;13.62;5.60;;;;;;;-14.47;96.63;101554.81;2573582;55;20132;-67
2021/03/20 04:55:06;;;;;;;13.50;6.25;;;;;;;-14.26;97.19;101538.56;2573697;55;20513;-65
2021/03/20 04:57:40;;;;;;;13.65;5.15;;;;;;;-13.90;97.25;101539.94;2573320;55;20653;-65
2021/03/20 05:00:19;;;;;;;8.43;4.90;;;;;;;-13.51;97.20;101534.56;2568644;55;20109;-65
2021/03/20 05:02:54;;;;;;;10.40;4.47;;;;;;;-13.21;96.75;101522.75;2568586;55;20127;-67
2021/03/20 05:05:29;;;;;;;12.13;5.03;;;;;;;-12.92;96.56;101521.19;2568355;55;20116;-65
2021/03/20 05:08:04;;;;;;;7.90;5.00;;;;;;;-12.53;95.56;101519.88;2568457;55;20147;-68
2021/03/20 05:10:41;;;;;;;15.70;5.43;;;;;;;-12.14;94.96;101508.25;2568463;55;20127;-65
2021/03/20 05:13:16;;;;;;;10.55;5.50;;;;;;;-11.90;94.06;101496.91;2568702;55;20131;-68
2021/03/20 05:15:45;;;;;;;9.15;5.20;;;;;;;-11.67;94.06;101499.28;2573499;55;20105;-68
2021/03/20 05:18:17;;;;;;;12.52;5.03;;;;;;;-11.34;93.66;101494.22;2573615;55;20128;-68
2021/03/20 05:20:46;;;;;;;9.52;4.30;;;;;;;-11.10;92.60;101490.56;2568222;55;20132;-68
2021/03/20 05:23:19;;;;;;;12.20;4.90;;;;;;;-11.00;92.40;101488.25;2568423;55;20633;-65
2021/03/20 05:25:49;;;;;;;6.55;3.65;;;;;;;-10.97;91.72;101485.72;2568337;55;20726;-66
2021/03/20 05:28:19;;;;;;;10.47;4.13;;;;;;;-10.92;91.84;101481.56;2573320;55;20124;-68
2021/03/20 05:30:47;;;;;;;9.43;5.57;;;;;;;-10.90;92.22;101473.03;2568145;55;20109;-69
2021/03/20 05:33:17;;;;;;;12.05;4.10;;;;;;;-10.80;92.32;101471.56;2568371;55;20121;-68
2021/03/20 05:35:45;;;;;;;7.80;3.62;;;;;;;-10.72;92.18;101465.72;2573245;55;20117;-68
2021/03/20 05:38:15;;;;;;;7.93;3.75;;;;;;;-10.68;92.54;101454.66;2573585;55;20124;-66
2021/03/20 05:40:45;;;;;;;11.80;5.03;;;;;;;-10.58;92.11;101461.78;2568172;55;20133;-67
2021/03/20 05:43:32;;;;;;;12.70;5.18;;;;;;;-10.51;92.42;101455.94;2568347;55;20113;-66
2021/03/20 05:46:27;;;;;;;17.12;5.10;;;;;;;-10.39;92.36;101452.72;2568249;55;20189;-67
2021/03/20 05:49:08;;;;;;;7.72;3.60;;;;;;;-10.28;91.77;101445.22;2568448;55;20106;-66
2021/03/20 05:52:01;;;;;;;9.80;4.70;;;;;;;-10.15;92.32;101451.53;2568112;55;20110;-66
2021/03/20 05:54:43;;;;;;;;;;;;;;;-9.99;91.09;101437.25;2568733;55;20125;-68
2021/03/20 05:57:23;;;;;;;7.17;3.97;;;;;;;-9.91;91.05;101434.81;2568334;55;19995;-68
2021/03/20 06:00:02;;;;;;;10.55;4.37;;;;;;;-9.84;91.40;101435.81;2568492;55;20117;-68
2021/03/20 06:02:59;;;;;;;10.43;5.40;;;;;;;-9.71;91.53;101430.06;2568112;55;20146;-66
2021/03/20 06:05:45;;;;;;;22.45;7.97;;;;;;;-9.57;91.78;101419.13;2568199;55;20106;-66
2021/03/20 06:08:51;;;;;;;9.00;5.35;;;;;;;-9.42;91.53;101408.22;2573375;55;20117;-69
2021/03/20 06:11:33;;;;;;;7.18;3.97;;;;;;;-9.30;91.73;101418.75;2567850;55;20122;-66
2021/03/20 06:14:18;;;;;;;13.05;5.12;;;;;;;-9.14;90.91;101412.16;2573434;55;20108;-69
2021/03/20 06:16:57;;;;;;;11.60;7.30;;;;;;;-8.98;90.40;101404.66;2573180;55;20532;-69
2021/03/20 06:20:10;;;;;;;9.50;4.50;;;;;;;-8.77;90.13;101398.09;2573511;55;20148;-66
2021/03/20 06:23:12;;;;;;;9.43;5.57;;;;;;;-8.54;90.18;101391.53;2573298;55;20195;-66
2021/03/20 06:25:59;;;;;;;7.60;4.10;;;;;;;-8.28;89.69;101378.06;2568116;55;20142;-67
2021/03/20 06:28:35;;;;;;;5.65;3.40;;;;;;;-8.09;88.95;101378.31;2568017;55;20121;-69
2021/03/20 06:31:20;;;;;;;8.18;3.05;;;;;;;-7.93;88.30;101373.31;2573304;55;20114;-68
2021/03/20 06:33:54;;;;;;;9.98;3.50;;;;;;;-7.79;88.31;101365.69;2573247;55;20157;-66
2021/03/20 06:36:30;;;;;;;5.82;3.53;;;;;;;-7.60;88.89;101369.37;2573317;55;20785;-66
2021/03/20 06:39:08;;;;;;;9.32;3.42;;;;;;;-7.38;88.30;101382.53;2568208;55;20122;-66
2021/03/20 06:41:42;;;;;;;8.20;3.67;;;;;;;-7.22;87.50;101368.84;2567958;55;20114;-67
2021/03/20 06:44:24;;;;;;;7.15;3.12;;;;;;;-7.14;87.17;101369.78;2568115;55;20121;-69
2021/03/20 06:46:54;;;;;;;6.72;3.30;;;;;;;-7.03;86.02;101356.03;2572915;55;20508;-69
2021/03/20 06:49:31;;;;;;;7.50;3.12;;;;;;;-6.88;86.19;101352.69;2568188;55;20110;-67
2021/03/20 06:52:02;;;;;;;12.15;3.95;;;;;;;-6.81;85.84;101345.81;2573158;55;20180;-67
2021/03/20 06:54:33;;;;;;;6.15;3.00;;;;;;;-6.64;85.80;101343.34;2573136;55;20533;-69
2021/03/20 06:57:02;;;;;;;9.68;3.47;;;;;;;-6.54;84.96;101347.75;2573004;55;20118;-67
2021/03/20 06:59:29;;;;;;;6.68;3.25;;;;;;;-6.38;83.85;101338.31;2567994;55;20611;-67
2021/03/20 07:02:04;;;;;;;9.43;4.07;;;;;;;-6.15;83.28;101334.94;2567879;55;20106;-69
2021/03/20 07:04:59;;;;;;;7.03;3.28;;;;;;;-6.00;82.50;101334.09;2573085;55;20118;-66
2021/03/20 07:07:44;;;;;;;6.62;3.15;;;;;;;-5.69;81.52;101338.53;2567839;55;20114;-67
2021/03/20 07:10:24;;;;;;;7.22;3.62;;;;;;;-5.45;80.03;101328.16;2573014;55;20107;-69
2021/03/20 07:13:16;;;;;;;8.05;2.95;;;;;;;-5.17;79.48;101312.56;2567905;55;20144;-67
2021/03/20 07:15:43;;;;;;;10.60;3.87;;;;;;;-4.86;76.02;101318.59;2567946;55;20879;-69
2021/03/20 07:18:31;;;;;;;8.27;3.05;;;;;;;-4.68;73.42;101309.88;2568261;55;20122;-69
2021/03/20 07:21:02;;;;;;;10.40;3.90;;;;;;;-4.48;73.34;101295.06;2567936;55;20158;-67
2021/03/20 07:23:31;;;;;;;9.27;2.72;;;;;;;-4.43;69.22;101297.66;2573835;55;20500;-67
2021/03/20 07:26:10;;;;;;;7.15;3.72;;;;;;;-4.35;68.96;101303.72;2568707;55;20145;-69
2021/03/20 07:28:50;;;;;;;6.22;2.70;;;;;;;-4.16;69.03;101303.63;2573687;55;20144;-69
2021/03/20 07:31:20;;;;;;;12.57;4.28;;;;;;;-4.20;66.61;101300.19;2573689;55;20106;-69
2021/03/20 07:33:56;;;;;;;5.65;2.72;;;;;;;-4.12;65.74;101300.12;2573979;55;20128;-69
2021/03/20 07:36:31;;;;;;;7.45;3.72;;;;;;;-4.07;63.78;101297.50;2573707;55;20122;-67
2021/03/20 07:39:18;;;;;;;9.05;3.35;;;;;;;-3.95;63.28;101291.37;2573888;55;20588;-69
2021/03/20 07:41:55;;;;;;;5.18;2.28;;;;;;;-3.83;61.98;101290.44;2568688;55;20124;-69
2021/03/20 07:44:26;;;;;;;4.65;2.20;;;;;;;-3.58;59.54;101290.25;2573938;55;20123;-69
2021/03/20 07:46:56;;;;;;;4.97;2.00;;;;;;;-3.29;58.69;101291.78;2573669;55;20143;-70
2021/03/20 07:49:32;;;;;;;3.62;1.60;;;;;;;-3.26;57.51;101292.62;2573745;55;20106;-69
2021/03/20 07:52:05;;;;;;;9.98;3.30;;;;;;;-3.10;58.29;101280.31;2568586;55;20125;-69
2021/03/20 07:54:38;;;;;;;3.78;2.10;;;;;;;-2.99;56.42;101280.22;2568608;55;20136;-69
2021/03/20 07:57:11;;;;;;;19.58;4.43;;;;;;;-3.04;54.79;101276.78;2573745;55;20226;-67
2021/03/20 07:59:45;;;;;;;5.15;1.92;;;;;;;-2.98;56.65;101279.34;2568790;55;20118;-69
2021/03/20 08:02:28;;;;;;;3.85;2.70;;;;;;;-3.15;55.62;101276.00;2573639;55;20132;-67
2021/03/20 08:05:01;;;;;;;4.55;1.85;;;;;;;-3.50;53.99;101278.91;2568564;55;20135;-67
2021/03/20 08:07:39;;;;;;;5.20;2.47;;;;;;;-3.78;55.27;101284.31;2568484;55;20113;-69
2021/03/20 08:10:26;;;;;;;4.60;2.25;;;;;;;-3.79;55.82;101264.34;2568478;55;20126;-67
2021/03/20 08:13:04;;;;;;;9.10;2.90;;;;;;;-3.93;56.63;101263.53;2568597;55;20114;-68
2021/03/20 08:15:36;;;;;;;5.53;2.50;;;;;;;-3.99;56.69;101254.00;2568472;55;20115;-69
2021/03/20 08:18:21;;;;;;;;;;;;;;;-3.88;56.48;101246.13;2568900;55;20863;-69
2021/03/20 08:21:24;;;;;;;3.20;1.65;;;;;;;-3.93;57.19;101250.50;2568435;55;20005;-67
2021/03/20 08:24:22;;;;;;;6.35;2.08;;;;;;;-3.90;56.61;101227.03;2570151;55;20129;-67
2021/03/20 08:27:01;;;;;;;3.10;2.08;;;;;;;-4.02;57.08;101234.91;2564457;55;20114;-69
2021/03/20 08:30:17;;;;;;;6.43;2.50;;;;;;;-4.02;58.17;101227.97;2573773;55;20121;-69
2021/03/20 08:33:14;;;;;;;3.72;2.08;;;;;;;-4.09;57.36;101224.53;2573432;55;20139;-69
2021/03/20 08:35:50;;;;;;;4.82;1.75;;;;;;;-4.30;57.77;101211.66;2568374;55;20158;-67
2021/03/20 08:38:39;;;;;;;5.62;1.65;;;;;;;-4.29;57.76;101215.97;2568447;55;20130;-67
2021/03/20 08:41:13;;;;;;;16.10;2.53;;;;;;;-4.41;57.28;101198.66;2568460;55;20117;-67
2021/03/20 08:43:58;;;;;;;8.32;2.35;;;;;;;-4.43;58.37;101206.47;2568430;55;20109;-67
2021/03/20 08:46:55;;;;;;;8.32;1.92;;;;;;;-4.13;58.56;101219.34;2568390;55;20113;-68
2021/03/20 08:49:37;;;;;;;4.47;1.60;;;;;;;-3.97;56.67;101209.69;2568445;55;20124;-67
2021/03/20 08:52:16;;;;;;;4.25;2.03;;;;;;;-3.71;57.30;101208.62;2568620;55;20128;-68
2021/03/20 08:55:17;;;;;;;6.43;2.62;;;;;;;-3.52;55.96;101207.59;2573700;55;20616;-69
2021/03/20 08:57:53;;;;;;;2.87;1.67;;;;;;;-3.66;55.90;101199.03;2554698;55;20113;-69
2021/03/20 09:00:32;;;;;;;2.85;1.92;;;;;;;-3.66;55.42;101204.25;2568711;55;20131;-67
2021/03/20 09:03:07;;;;;;;3.75;2.20;;;;;;;-3.82;55.64;101209.56;2568500;55;20122;-67
2021/03/20 09:05:40;;;;;;;4.50;1.98;;;;;;;-3.91;56.08;101199.19;2568446;55;20122;-67
2021/03/20 09:08:17;;;;;;;1.92;1.37;;;;;;;-3.97;56.73;101188.84;2573685;55;20122;-67
2021/03/20 09:10:56;;;;;;;2.33;1.70;;;;;;;-4.11;56.64;101189.81;2573301;55;20176;-68
2021/03/20 09:13:31;;;;;;;4.85;2.55;;;;;;;-4.10;57.18;101194.16;2573681;55;20175;-67
2021/03/20 09:16:04;;;;;;;5.03;1.70;;;;;;;-4.03;56.97;101200.19;2573398;55;20513;-69
2021/03/20 09:18:35;;;;;;;8.43;2.42;;;;;;;-3.95;57.73;101207.94;2573637;55;20114;-69
2021/03/20 09:21:07;;;;;;;4.35;1.80;;;;;;;-3.88;56.84;101183.56;2573593;55;20121;-69
2021/03/20 09:23:41;;;;;;;5.37;2.03;;;;;;;-3.96;57.66;101183.63;2573567;55;20649;-67
2021/03/20 09:26:12;;;;;;;2.45;1.70;;;;;;;-4.12;55.54;101179.37;2573290;55;20128;-69
2021/03/20 09:29:08;;;;;;;4.43;2.05;;;;;;;-4.20;56.32;101179.44;2568202;55;20113;-67
2021/03/20 09:32:15;;;;;;;5.22;2.45;;;;;;;-4.22;56.80;101162.91;2566177;55;20619;-69
2021/03/20 09:34:52;;;;;;;3.05;1.55;;;;;;;-4.42;57.93;101153.50;2573459;55;20669;-69
2021/03/20 09:37:48;;;;;;;2.60;1.20;;;;;;;-4.31;56.83;101155.16;2573435;55;20121;-67
2021/03/20 09:40:55;;;;;;;6.25;1.33;;;;;;;-4.29;57.07;101143.88;2566628;55;20903;-67
2021/03/20 09:43:39;;;;;;;5.28;1.60;;;;;;;-4.42;57.60;101143.06;2568283;55;20132;-69
2021/03/20 09:46:27;;;;;;;2.53;1.25;;;;;;;-4.36;56.85;101143.03;2568151;55;20139;-67
2021/03/20 09:48:58;;;;;;;4.35;1.65;;;;;;;-4.42;56.99;101130.03;2573266;55;20139;-69
2021/03/20 09:51:53;;;;;;;3.80;1.90;;;;;;;-4.20;57.41;101132.53;2573220;55;20170;-67
2021/03/20 09:54:43;;;;;;;8.20;2.65;;;;;;;-4.11;57.78;101127.25;2568211;55;20113;-67
2021/03/20 09:57:50;;;;;;;2.95;1.30;;;;;;;-4.02;57.87;101117.59;2567132;55;20624;-69
2021/03/20 10:00:51;;;;;;;4.62;1.55;;;;;;;-3.99;56.89;101112.38;2568120;55;20116;-69
2021/03/20 10:03:46;;;;;;;3.40;1.15;;;;;;;-4.10;57.16;101115.06;2568188;55;20668;-67
2021/03/20 10:06:29;;;;;;;4.60;2.08;;;;;;;-4.15;56.72;101112.50;2568304;55;20106;-69
2021/03/20 10:09:25;;;;;;;2.47;1.37;;;;;;;-4.21;56.83;101113.41;2568201;55;20124;-67
2021/03/20 10:12:22;;;;;;;3.90;1.80;;;;;;;-4.22;57.84;101109.06;2568311;55;20116;-67
2021/03/20 10:15:14;;;;;;;4.28;2.30;;;;;;;-4.22;58.06;101110.81;2568075;55;20648;-69
2021/03/20 10:18:22;;;;;;;2.47;1.15;;;;;;;-4.20;58.41;101109.91;2568077;55;20132;-67
2021/03/20 10:21:24;;;;;;;2.28;1.50;;;;;;;-4.20;58.87;101106.47;2568203;55;20132;-68
2021/03/20 10:24:23;;;;;;;4.12;1.90;;;;;;;-4.34;58.73;101075.28;2568224;55;20618;-69
2021/03/20 10:27:03;;;;;;;4.53;1.85;;;;;;;-4.17;59.04;101098.63;2573116;55;20123;-67
2021/03/20 10:29:35;;;;;;;3.72;1.87;;;;;;;-4.15;59.45;101096.84;2568027;55;20143;-67
2021/03/20 10:32:16;;;;;;;5.32;1.50;;;;;;;-4.02;58.47;101081.09;2573205;55;20139;-68
2021/03/20 10:34:53;;;;;;;2.30;1.48;;;;;;;-4.00;58.13;101075.00;2568143;55;20533;-67
2021/03/20 10:37:29;;;;;;;7.28;3.72;;;;;;;-3.91;58.91;101066.22;2573094;55;20109;-69
2021/03/20 10:40:07;;;;;;;3.20;1.95;;;;;;;-3.79;57.13;101060.91;2573271;55;20162;-68
2021/03/20 10:42:40;;;;;;;5.80;1.73;;;;;;;-3.74;56.74;101049.56;2573162;55;20117;-69
2021/03/20 10:45:18;;;;;;;3.03;1.75;;;;;;;-3.63;56.40;101039.88;2573355;55;20145;-67
2021/03/20 10:47:47;;;;;;;4.22;2.42;;;;;;;-3.55;56.11;101034.59;2573093;55;20638;-68
2021/03/20 10:50:28;;;;;;;3.92;2.40;;;;;;;-3.35;56.13;101031.72;2568074;55;20624;-67
2021/03/20 10:53:02;;;;;;;4.15;1.85;;;;;;;-3.20;55.24;101029.84;2567995;55;20132;-69
2021/03/20 10:55:37;;;;;;;5.15;2.00;;;;;;;-3.27;55.08;101016.84;2573168;55;20154;-68
2021/03/20 10:58:13;;;;;;;2.40;1.50;;;;;;;-3.38;54.08;101010.91;2573986;55;20124;-67
2021/03/20 11:00:44;;;;;;;2.90;1.52;;;;;;;-3.34;54.99;101012.59;2573799;55;20110;-67
2021/03/20 11:03:23;;;;;;;5.90;1.40;;;;;;;-3.40;55.63;101002.25;2573834;55;20684;-69
2021/03/20 11:05:51;;;;;;;3.97;2.08;;;;;;;-3.58;55.15;100998.09;2568780;55;20496;-67
2021/03/20 11:08:27;;;;;;;3.70;1.98;;;;;;;-3.74;55.94;100998.28;2573767;55;20618;-67
2021/03/20 11:11:10;;;;;;;3.90;1.45;;;;;;;-3.67;55.34;100983.41;2573881;55;20140;-67
2021/03/20 11:13:43;;;;;;;4.85;1.37;;;;;;;-3.80;55.48;100974.88;2568737;55;20612;-69
2021/03/20 11:16:18;;;;;;;2.62;1.42;;;;;;;-3.80;55.93;100975.75;2568816;55;20140;-69
2021/03/20 11:18:50;;;;;;;7.70;1.40;;;;;;;-3.77;55.94;100965.25;2574031;55;20123;-69
2021/03/20 11:21:31;;;;;;;1.52;1.08;;;;;;;-3.66;54.89;100959.94;2573866;55;20127;-69
2021/03/20 11:24:03;;;;;;;2.47;1.00;;;;;;;-3.71;54.98;100939.97;2568780;55;20125;-69
2021/03/20 11:26:37;;;;;;;2.47;1.05;;;;;;;-3.67;54.85;100941.69;2573664;55;20503;-68
2021/03/20 11:29:11;;;;;;;4.18;1.55;;;;;;;-3.83;54.48;100925.37;2574054;55;20654;-67
2021/03/20 11:31:48;;;;;;;1.55;0.95;;;;;;;-3.77;55.90;100913.09;2573559;55;20641;-69
2021/03/20 11:34:25;;;;;;;2.12;0.95;;;;;;;-3.85;55.91;100920.16;2574053;55;20675;-67
2021/03/20 11:36:56;;;;;;;3.75;1.30;;;;;;;-4.01;55.24;100910.78;2568669;55;20517;-68
2021/03/20 11:39:27;;;;;;;2.58;1.40;;;;;;;-4.03;55.85;100907.34;2573890;55;20114;-67
2021/03/20 11:41:59;;;;;;;3.53;1.20;;;;;;;-4.08;55.78;100905.66;2573973;55;20102;-69
2021/03/20 11:44:32;;;;;;;1.92;1.20;;;;;;;-4.09;54.77;100896.12;2573769;55;20114;-69
2021/03/20 11:47:03;;;;;;;3.37;1.40;;;;;;;-4.16;55.33;100885.75;2568685;55;20120;-69
2021/03/20 11:49:43;;;;;;;3.83;1.83;;;;;;;-4.19;56.34;100882.31;2574021;55;20117;-67
2021/03/20 11:52:17;;;;;;;1.12;0.90;;;;;;;-4.14;54.32;100863.16;2568675;55;20634;-68
2021/03/20 11:54:55;;;;;;;3.12;1.17;;;;;;;-4.08;54.80;100871.78;2568742;55;20110;-69
2021/03/20 11:57:32;;;;;;;0.93;0.73;;;;;;;-3.92;53.81;100850.72;2573848;55;20664;-68
2021/03/20 12:00:00;;;;;;;2.08;1.20;;;;;;;-3.92;53.08;100845.50;2568836;55;20106;-67
2021/03/20 12:02:38;;;;;;;1.20;1.10;;;;;;;-3.87;52.56;100838.50;2573613;55;20485;-67
2021/03/20 12:05:10;;;;;;;2.00;1.48;;;;;;;-3.98;51.87;100824.75;2568716;55;20121;-69